sensor_id;sensor_type;location;lat;lon;timestamp;P1;durP1;ratioP1;P2;durP2;ratioP2
71172;SDS011;58875;51.996;4.504;2022-11-11T00:00:58;17.86;;;17.69;;
71172;SDS011;58875;51.996;4.504;2022-11-11T00:03:25;17.27;;;17.17;;
71172;SDS011;58875;51.996;4.504;2022-11-11T00:05:50;18.58;;;18.53;;
71172;SDS011;58875;51.996;4.504;2022-11-11T00:08:16;18.78;;;18.68;;
71172;SDS011;58875;51.996;4.504;2022-11-11T00:10:41;18.46;;;18.35;;
71172;SDS011;58875;51.996;4.504;2022-11-11T00:13:07;19.12;;;18.86;;
71172;SDS011;58875;51.996;4.504;2022-11-11T00:15:35;18.48;;;18.23;;
71172;SDS011;58875;51.996;4.504;2022-11-11T00:18:03;18.67;;;18.63;;
71172;SDS011;58875;51.996;4.504;2022-11-11T00:20:48;18.96;;;18.81;;
71172;SDS011;58875;51.996;4.504;2022-11-11T00:23:32;19.47;;;19.35;;
71172;SDS011;58875;51.996;4.504;2022-11-11T00:26:16;20.15;;;19.85;;
71172;SDS011;58875;51.996;4.504;2022-11-11T00:28:42;20.49;;;20.15;;
71172;SDS011;58875;51.996;4.504;2022-11-11T00:31:09;19.73;;;19.50;;
71172;SDS011;58875;51.996;4.504;2022-11-11T00:33:36;20.33;;;20.10;;
71172;SDS011;58875;51.996;4.504;2022-11-11T00:36:03;20.39;;;20.19;;
71172;SDS011;58875;51.996;4.504;2022-11-11T00:38:29;20.47;;;20.19;;
71172;SDS011;58875;51.996;4.504;2022-11-11T00:41:14;20.45;;;20.23;;
71172;SDS011;58875;51.996;4.504;2022-11-11T00:43:42;21.27;;;20.95;;
71172;SDS011;58875;51.996;4.504;2022-11-11T00:46:10;21.69;;;21.28;;
71172;SDS011;58875;51.996;4.504;2022-11-11T00:48:54;22.04;;;21.85;;
71172;SDS011;58875;51.996;4.504;2022-11-11T00:51:38;21.56;;;21.31;;
71172;SDS011;58875;51.996;4.504;2022-11-11T00:54:04;21.81;;;21.51;;
71172;SDS011;58875;51.996;4.504;2022-11-11T00:56:31;22.27;;;21.84;;
71172;SDS011;58875;51.996;4.504;2022-11-11T00:58:57;21.93;;;21.64;;
71172;SDS011;58875;51.996;4.504;2022-11-11T01:01:22;21.95;;;21.49;;
71172;SDS011;58875;51.996;4.504;2022-11-11T01:03:48;22.50;;;21.99;;
71172;SDS011;58875;51.996;4.504;2022-11-11T01:06:13;21.80;;;21.45;;
71172;SDS011;58875;51.996;4.504;2022-11-11T01:08:39;21.56;;;21.09;;
71172;SDS011;58875;51.996;4.504;2022-11-11T01:11:16;22.79;;;22.18;;
71172;SDS011;58875;51.996;4.504;2022-11-11T01:13:44;22.52;;;21.98;;
71172;SDS011;58875;51.996;4.504;2022-11-11T01:16:11;23.11;;;22.34;;
71172;SDS011;58875;51.996;4.504;2022-11-11T01:18:41;22.18;;;21.79;;
71172;SDS011;58875;51.996;4.504;2022-11-11T01:21:09;22.30;;;21.88;;
71172;SDS011;58875;51.996;4.504;2022-11-11T01:23:36;22.78;;;22.27;;
71172;SDS011;58875;51.996;4.504;2022-11-11T01:26:04;23.16;;;22.68;;
71172;SDS011;58875;51.996;4.504;2022-11-11T01:28:32;23.62;;;22.91;;
71172;SDS011;58875;51.996;4.504;2022-11-11T01:31:02;23.70;;;23.11;;
71172;SDS011;58875;51.996;4.504;2022-11-11T01:33:30;23.74;;;23.00;;
71172;SDS011;58875;51.996;4.504;2022-11-11T01:36:00;23.49;;;23.02;;
71172;SDS011;58875;51.996;4.504;2022-11-11T01:38:28;23.40;;;22.64;;
71172;SDS011;58875;51.996;4.504;2022-11-11T01:40:53;23.04;;;22.62;;
71172;SDS011;58875;51.996;4.504;2022-11-11T01:43:20;23.77;;;23.01;;
71172;SDS011;58875;51.996;4.504;2022-11-11T01:48:36;23.06;;;22.63;;
71172;SDS011;58875;51.996;4.504;2022-11-11T01:54:31;23.96;;;23.06;;
71172;SDS011;58875;51.996;4.504;2022-11-11T01:59:40;23.60;;;23.05;;
71172;SDS011;58875;51.996;4.504;2022-11-11T02:02:20;23.72;;;23.05;;
71172;SDS011;58875;51.996;4.504;2022-11-11T02:04:50;24.20;;;23.38;;
71172;SDS011;58875;51.996;4.504;2022-11-11T02:07:36;24.01;;;23.27;;
71172;SDS011;58875;51.996;4.504;2022-11-11T02:10:04;23.74;;;22.96;;
71172;SDS011;58875;51.996;4.504;2022-11-11T02:12:33;23.23;;;22.68;;
71172;SDS011;58875;51.996;4.504;2022-11-11T02:15:17;24.78;;;23.89;;
71172;SDS011;58875;51.996;4.504;2022-11-11T02:17:42;24.83;;;23.82;;
71172;SDS011;58875;51.996;4.504;2022-11-11T02:20:12;24.23;;;23.37;;
71172;SDS011;58875;51.996;4.504;2022-11-11T02:22:44;25.00;;;24.30;;
71172;SDS011;58875;51.996;4.504;2022-11-11T02:25:18;23.94;;;23.36;;
71172;SDS011;58875;51.996;4.504;2022-11-11T02:27:49;24.43;;;23.94;;
71172;SDS011;58875;51.996;4.504;2022-11-11T02:30:18;25.10;;;24.33;;
71172;SDS011;58875;51.996;4.504;2022-11-11T02:32:48;25.25;;;24.74;;
71172;SDS011;58875;51.996;4.504;2022-11-11T02:35:16;25.14;;;24.76;;
71172;SDS011;58875;51.996;4.504;2022-11-11T02:37:48;24.73;;;24.32;;
71172;SDS011;58875;51.996;4.504;2022-11-11T02:40:50;25.92;;;25.12;;
71172;SDS011;58875;51.996;4.504;2022-11-11T02:43:28;26.67;;;25.90;;
71172;SDS011;58875;51.996;4.504;2022-11-11T02:45:55;26.07;;;25.57;;
71172;SDS011;58875;51.996;4.504;2022-11-11T02:48:24;27.85;;;26.87;;
71172;SDS011;58875;51.996;4.504;2022-11-11T02:50:51;27.35;;;26.72;;
71172;SDS011;58875;51.996;4.504;2022-11-11T02:53:18;27.04;;;26.49;;
71172;SDS011;58875;51.996;4.504;2022-11-11T02:55:43;27.73;;;26.80;;
71172;SDS011;58875;51.996;4.504;2022-11-11T02:58:09;26.75;;;26.01;;
71172;SDS011;58875;51.996;4.504;2022-11-11T03:00:35;26.39;;;25.62;;
71172;SDS011;58875;51.996;4.504;2022-11-11T03:03:01;26.07;;;25.29;;
71172;SDS011;58875;51.996;4.504;2022-11-11T03:05:26;26.74;;;25.90;;
71172;SDS011;58875;51.996;4.504;2022-11-11T03:07:52;26.56;;;25.79;;
71172;SDS011;58875;51.996;4.504;2022-11-11T03:10:17;25.88;;;25.33;;
71172;SDS011;58875;51.996;4.504;2022-11-11T03:12:43;25.96;;;25.56;;
71172;SDS011;58875;51.996;4.504;2022-11-11T03:15:08;25.84;;;25.10;;
71172;SDS011;58875;51.996;4.504;2022-11-11T03:17:34;25.68;;;25.09;;
71172;SDS011;58875;51.996;4.504;2022-11-11T03:20:09;25.05;;;24.44;;
71172;SDS011;58875;51.996;4.504;2022-11-11T03:23:02;25.26;;;24.58;;
71172;SDS011;58875;51.996;4.504;2022-11-11T03:25:31;25.68;;;24.94;;
71172;SDS011;58875;51.996;4.504;2022-11-11T03:28:04;27.04;;;26.14;;
71172;SDS011;58875;51.996;4.504;2022-11-11T03:30:35;26.22;;;25.64;;
71172;SDS011;58875;51.996;4.504;2022-11-11T03:33:02;26.12;;;25.47;;
71172;SDS011;58875;51.996;4.504;2022-11-11T03:35:28;26.23;;;25.63;;
71172;SDS011;58875;51.996;4.504;2022-11-11T03:37:54;26.03;;;25.26;;
71172;SDS011;58875;51.996;4.504;2022-11-11T03:40:38;26.13;;;25.24;;
71172;SDS011;58875;51.996;4.504;2022-11-11T03:43:04;26.48;;;25.55;;
71172;SDS011;58875;51.996;4.504;2022-11-11T03:45:30;26.95;;;26.00;;
71172;SDS011;58875;51.996;4.504;2022-11-11T03:47:56;25.60;;;24.96;;
71172;SDS011;58875;51.996;4.504;2022-11-11T03:50:22;25.23;;;24.42;;
71172;SDS011;58875;51.996;4.504;2022-11-11T03:52:48;24.97;;;24.49;;
71172;SDS011;58875;51.996;4.504;2022-11-11T03:55:13;26.40;;;25.53;;
71172;SDS011;58875;51.996;4.504;2022-11-11T03:57:40;26.21;;;25.42;;
71172;SDS011;58875;51.996;4.504;2022-11-11T04:00:08;25.96;;;24.97;;
71172;SDS011;58875;51.996;4.504;2022-11-11T04:02:34;25.67;;;25.10;;
71172;SDS011;58875;51.996;4.504;2022-11-11T04:05:18;24.53;;;24.22;;
71172;SDS011;58875;51.996;4.504;2022-11-11T04:08:03;26.50;;;25.73;;
71172;SDS011;58875;51.996;4.504;2022-11-11T04:10:47;27.52;;;26.33;;
71172;SDS011;58875;51.996;4.504;2022-11-11T04:13:12;26.39;;;25.26;;
71172;SDS011;58875;51.996;4.504;2022-11-11T04:15:56;26.09;;;25.36;;
71172;SDS011;58875;51.996;4.504;2022-11-11T04:18:31;26.30;;;25.57;;
71172;SDS011;58875;51.996;4.504;2022-11-11T04:21:16;27.42;;;26.48;;
71172;SDS011;58875;51.996;4.504;2022-11-11T04:24:01;26.86;;;26.05;;
71172;SDS011;58875;51.996;4.504;2022-11-11T04:26:26;27.40;;;26.67;;
71172;SDS011;58875;51.996;4.504;2022-11-11T04:28:52;27.99;;;27.03;;
71172;SDS011;58875;51.996;4.504;2022-11-11T04:31:36;26.85;;;26.24;;
71172;SDS011;58875;51.996;4.504;2022-11-11T04:34:22;27.25;;;26.56;;
71172;SDS011;58875;51.996;4.504;2022-11-11T04:36:47;28.19;;;27.05;;
71172;SDS011;58875;51.996;4.504;2022-11-11T04:39:13;27.82;;;26.80;;
71172;SDS011;58875;51.996;4.504;2022-11-11T04:41:57;27.73;;;26.82;;
71172;SDS011;58875;51.996;4.504;2022-11-11T04:44:22;28.06;;;27.04;;
71172;SDS011;58875;51.996;4.504;2022-11-11T04:47:12;27.84;;;26.83;;
71172;SDS011;58875;51.996;4.504;2022-11-11T04:49:41;27.43;;;26.45;;
71172;SDS011;58875;51.996;4.504;2022-11-11T04:52:07;26.85;;;26.23;;
71172;SDS011;58875;51.996;4.504;2022-11-11T04:54:56;27.13;;;26.29;;
71172;SDS011;58875;51.996;4.504;2022-11-11T04:57:43;27.23;;;26.50;;
71172;SDS011;58875;51.996;4.504;2022-11-11T05:00:12;26.56;;;25.74;;
71172;SDS011;58875;51.996;4.504;2022-11-11T05:02:39;26.56;;;25.88;;
71172;SDS011;58875;51.996;4.504;2022-11-11T05:05:24;25.91;;;25.31;;
71172;SDS011;58875;51.996;4.504;2022-11-11T05:07:51;24.96;;;24.50;;
71172;SDS011;58875;51.996;4.504;2022-11-11T05:10:35;24.66;;;24.04;;
71172;SDS011;58875;51.996;4.504;2022-11-11T05:13:02;25.22;;;24.71;;
71172;SDS011;58875;51.996;4.504;2022-11-11T05:15:47;26.36;;;25.26;;
71172;SDS011;58875;51.996;4.504;2022-11-11T05:18:31;24.26;;;23.60;;
71172;SDS011;58875;51.996;4.504;2022-11-11T05:21:17;24.53;;;23.78;;
71172;SDS011;58875;51.996;4.504;2022-11-11T05:23:48;25.31;;;24.49;;
71172;SDS011;58875;51.996;4.504;2022-11-11T05:26:32;25.35;;;24.54;;
71172;SDS011;58875;51.996;4.504;2022-11-11T05:28:58;25.74;;;24.81;;
71172;SDS011;58875;51.996;4.504;2022-11-11T05:31:24;25.59;;;24.89;;
71172;SDS011;58875;51.996;4.504;2022-11-11T05:33:50;23.63;;;23.21;;
71172;SDS011;58875;51.996;4.504;2022-11-11T05:36:16;24.84;;;24.21;;
71172;SDS011;58875;51.996;4.504;2022-11-11T05:38:42;25.23;;;24.50;;
71172;SDS011;58875;51.996;4.504;2022-11-11T05:41:07;24.95;;;24.34;;
71172;SDS011;58875;51.996;4.504;2022-11-11T05:43:33;25.79;;;24.84;;
71172;SDS011;58875;51.996;4.504;2022-11-11T05:45:59;25.26;;;24.47;;
71172;SDS011;58875;51.996;4.504;2022-11-11T05:48:25;25.23;;;24.36;;
71172;SDS011;58875;51.996;4.504;2022-11-11T05:50:50;25.42;;;24.44;;
71172;SDS011;58875;51.996;4.504;2022-11-11T05:53:16;26.41;;;25.49;;
71172;SDS011;58875;51.996;4.504;2022-11-11T05:55:51;25.97;;;25.06;;
71172;SDS011;58875;51.996;4.504;2022-11-11T05:58:17;25.94;;;24.73;;
71172;SDS011;58875;51.996;4.504;2022-11-11T06:00:44;26.38;;;25.28;;
71172;SDS011;58875;51.996;4.504;2022-11-11T06:03:09;25.67;;;24.94;;
71172;SDS011;58875;51.996;4.504;2022-11-11T06:05:36;25.38;;;24.83;;
71172;SDS011;58875;51.996;4.504;2022-11-11T06:08:02;25.34;;;24.93;;
71172;SDS011;58875;51.996;4.504;2022-11-11T06:10:28;24.78;;;24.15;;
71172;SDS011;58875;51.996;4.504;2022-11-11T06:13:00;24.76;;;24.09;;
71172;SDS011;58875;51.996;4.504;2022-11-11T06:15:38;25.76;;;24.76;;
71172;SDS011;58875;51.996;4.504;2022-11-11T06:18:05;27.01;;;25.69;;
71172;SDS011;58875;51.996;4.504;2022-11-11T06:20:31;26.43;;;25.62;;
71172;SDS011;58875;51.996;4.504;2022-11-11T06:22:59;26.85;;;25.70;;
71172;SDS011;58875;51.996;4.504;2022-11-11T06:25:26;25.43;;;24.66;;
71172;SDS011;58875;51.996;4.504;2022-11-11T06:28:13;25.76;;;24.98;;
71172;SDS011;58875;51.996;4.504;2022-11-11T06:30:39;26.54;;;25.60;;
71172;SDS011;58875;51.996;4.504;2022-11-11T06:33:06;25.64;;;24.76;;
71172;SDS011;58875;51.996;4.504;2022-11-11T06:35:33;26.42;;;25.37;;
71172;SDS011;58875;51.996;4.504;2022-11-11T06:38:00;25.63;;;24.66;;
71172;SDS011;58875;51.996;4.504;2022-11-11T06:40:26;25.91;;;24.95;;
71172;SDS011;58875;51.996;4.504;2022-11-11T06:42:52;25.11;;;24.56;;
71172;SDS011;58875;51.996;4.504;2022-11-11T06:45:18;25.20;;;24.49;;
71172;SDS011;58875;51.996;4.504;2022-11-11T06:47:44;25.28;;;24.42;;
71172;SDS011;58875;51.996;4.504;2022-11-11T06:50:09;25.96;;;25.10;;
71172;SDS011;58875;51.996;4.504;2022-11-11T06:52:35;25.92;;;25.25;;
71172;SDS011;58875;51.996;4.504;2022-11-11T06:55:00;26.96;;;26.04;;
71172;SDS011;58875;51.996;4.504;2022-11-11T06:57:26;26.22;;;25.25;;
71172;SDS011;58875;51.996;4.504;2022-11-11T06:59:51;25.98;;;25.13;;
71172;SDS011;58875;51.996;4.504;2022-11-11T07:02:17;25.40;;;24.60;;
71172;SDS011;58875;51.996;4.504;2022-11-11T07:04:42;24.39;;;23.76;;
71172;SDS011;58875;51.996;4.504;2022-11-11T07:07:08;24.63;;;23.96;;
71172;SDS011;58875;51.996;4.504;2022-11-11T07:09:33;24.28;;;23.42;;
71172;SDS011;58875;51.996;4.504;2022-11-11T07:11:59;24.96;;;24.20;;
71172;SDS011;58875;51.996;4.504;2022-11-11T07:14:25;24.20;;;23.52;;
71172;SDS011;58875;51.996;4.504;2022-11-11T07:16:51;24.48;;;23.53;;
71172;SDS011;58875;51.996;4.504;2022-11-11T07:19:17;24.52;;;23.68;;
71172;SDS011;58875;51.996;4.504;2022-11-11T07:21:42;25.30;;;24.57;;
71172;SDS011;58875;51.996;4.504;2022-11-11T07:24:08;25.74;;;24.41;;
71172;SDS011;58875;51.996;4.504;2022-11-11T07:26:33;24.76;;;23.95;;
71172;SDS011;58875;51.996;4.504;2022-11-11T07:28:59;24.70;;;23.73;;
71172;SDS011;58875;51.996;4.504;2022-11-11T07:31:24;23.94;;;23.28;;
71172;SDS011;58875;51.996;4.504;2022-11-11T07:33:50;24.29;;;23.62;;
71172;SDS011;58875;51.996;4.504;2022-11-11T07:36:15;25.59;;;24.55;;
71172;SDS011;58875;51.996;4.504;2022-11-11T07:38:41;25.92;;;24.83;;
71172;SDS011;58875;51.996;4.504;2022-11-11T07:41:06;25.40;;;24.48;;
71172;SDS011;58875;51.996;4.504;2022-11-11T07:43:32;25.83;;;25.01;;
71172;SDS011;58875;51.996;4.504;2022-11-11T07:45:57;26.36;;;25.12;;
71172;SDS011;58875;51.996;4.504;2022-11-11T07:48:23;26.23;;;24.93;;
71172;SDS011;58875;51.996;4.504;2022-11-11T07:50:50;24.58;;;23.98;;
71172;SDS011;58875;51.996;4.504;2022-11-11T07:53:17;23.80;;;23.32;;
71172;SDS011;58875;51.996;4.504;2022-11-11T07:55:44;24.24;;;23.31;;
71172;SDS011;58875;51.996;4.504;2022-11-11T07:58:10;24.50;;;23.64;;
71172;SDS011;58875;51.996;4.504;2022-11-11T08:00:36;24.14;;;23.19;;
71172;SDS011;58875;51.996;4.504;2022-11-11T08:03:01;24.85;;;23.81;;
71172;SDS011;58875;51.996;4.504;2022-11-11T08:05:27;24.01;;;23.21;;
71172;SDS011;58875;51.996;4.504;2022-11-11T08:07:53;25.20;;;24.00;;
71172;SDS011;58875;51.996;4.504;2022-11-11T08:10:18;24.81;;;23.86;;
71172;SDS011;58875;51.996;4.504;2022-11-11T08:12:44;24.74;;;23.91;;
71172;SDS011;58875;51.996;4.504;2022-11-11T08:15:28;24.40;;;23.64;;
71172;SDS011;58875;51.996;4.504;2022-11-11T08:17:53;25.18;;;23.95;;
71172;SDS011;58875;51.996;4.504;2022-11-11T08:20:19;25.96;;;24.87;;
71172;SDS011;58875;51.996;4.504;2022-11-11T08:22:44;26.57;;;25.32;;
71172;SDS011;58875;51.996;4.504;2022-11-11T08:25:11;25.98;;;24.97;;
71172;SDS011;58875;51.996;4.504;2022-11-11T08:27:40;25.89;;;24.72;;
71172;SDS011;58875;51.996;4.504;2022-11-11T08:30:06;26.26;;;25.15;;
71172;SDS011;58875;51.996;4.504;2022-11-11T08:32:33;25.24;;;24.21;;
71172;SDS011;58875;51.996;4.504;2022-11-11T08:34:59;24.63;;;23.78;;
71172;SDS011;58875;51.996;4.504;2022-11-11T08:37:24;24.27;;;23.46;;
71172;SDS011;58875;51.996;4.504;2022-11-11T08:39:50;24.97;;;23.98;;
71172;SDS011;58875;51.996;4.504;2022-11-11T08:42:18;24.26;;;23.57;;
71172;SDS011;58875;51.996;4.504;2022-11-11T08:44:44;24.05;;;23.08;;
71172;SDS011;58875;51.996;4.504;2022-11-11T08:47:09;24.67;;;23.65;;
71172;SDS011;58875;51.996;4.504;2022-11-11T08:49:35;24.33;;;23.50;;
71172;SDS011;58875;51.996;4.504;2022-11-11T08:52:00;23.76;;;23.09;;
71172;SDS011;58875;51.996;4.504;2022-11-11T08:54:26;24.84;;;23.99;;
71172;SDS011;58875;51.996;4.504;2022-11-11T08:56:51;24.68;;;23.65;;
71172;SDS011;58875;51.996;4.504;2022-11-11T08:59:17;25.37;;;24.25;;
71172;SDS011;58875;51.996;4.504;2022-11-11T09:01:42;25.06;;;24.33;;
71172;SDS011;58875;51.996;4.504;2022-11-11T09:04:08;25.52;;;24.61;;
71172;SDS011;58875;51.996;4.504;2022-11-11T09:06:33;24.92;;;24.19;;
71172;SDS011;58875;51.996;4.504;2022-11-11T09:08:59;25.61;;;24.66;;
71172;SDS011;58875;51.996;4.504;2022-11-11T09:11:25;25.81;;;24.77;;
71172;SDS011;58875;51.996;4.504;2022-11-11T09:13:50;24.64;;;24.00;;
71172;SDS011;58875;51.996;4.504;2022-11-11T09:16:16;25.23;;;24.17;;
71172;SDS011;58875;51.996;4.504;2022-11-11T09:18:41;24.86;;;24.14;;
71172;SDS011;58875;51.996;4.504;2022-11-11T09:21:07;24.32;;;23.70;;
71172;SDS011;58875;51.996;4.504;2022-11-11T09:23:33;23.92;;;23.35;;
71172;SDS011;58875;51.996;4.504;2022-11-11T09:26:01;24.64;;;23.98;;
71172;SDS011;58875;51.996;4.504;2022-11-11T09:28:30;24.44;;;23.77;;
71172;SDS011;58875;51.996;4.504;2022-11-11T09:31:01;25.98;;;25.28;;
71172;SDS011;58875;51.996;4.504;2022-11-11T09:33:28;25.74;;;24.91;;
71172;SDS011;58875;51.996;4.504;2022-11-11T09:35:53;26.31;;;25.43;;
71172;SDS011;58875;51.996;4.504;2022-11-11T09:38:19;25.57;;;25.00;;
71172;SDS011;58875;51.996;4.504;2022-11-11T09:40:56;25.99;;;25.27;;
71172;SDS011;58875;51.996;4.504;2022-11-11T09:43:56;24.60;;;24.11;;
71172;SDS011;58875;51.996;4.504;2022-11-11T09:49:09;25.06;;;24.39;;
71172;SDS011;58875;51.996;4.504;2022-11-11T09:57:18;23.18;;;22.54;;
71172;SDS011;58875;51.996;4.504;2022-11-11T09:59:49;22.31;;;21.70;;
71172;SDS011;58875;51.996;4.504;2022-11-11T10:02:23;21.75;;;21.15;;
71172;SDS011;58875;51.996;4.504;2022-11-11T10:04:59;21.04;;;20.51;;
71172;SDS011;58875;51.996;4.504;2022-11-11T10:10:17;20.84;;;20.15;;
71172;SDS011;58875;51.996;4.504;2022-11-11T10:12:57;20.83;;;20.11;;
71172;SDS011;58875;51.996;4.504;2022-11-11T10:15:25;20.64;;;20.06;;
71172;SDS011;58875;51.996;4.504;2022-11-11T10:21:02;19.83;;;19.32;;
71172;SDS011;58875;51.996;4.504;2022-11-11T10:23:37;19.28;;;18.72;;
71172;SDS011;58875;51.996;4.504;2022-11-11T10:26:04;18.84;;;18.43;;
71172;SDS011;58875;51.996;4.504;2022-11-11T10:28:41;18.97;;;18.44;;
71172;SDS011;58875;51.996;4.504;2022-11-11T10:31:13;18.66;;;18.19;;
71172;SDS011;58875;51.996;4.504;2022-11-11T10:33:46;18.64;;;18.27;;
71172;SDS011;58875;51.996;4.504;2022-11-11T10:36:19;19.75;;;19.16;;
71172;SDS011;58875;51.996;4.504;2022-11-11T10:44:01;20.04;;;19.48;;
71172;SDS011;58875;51.996;4.504;2022-11-11T10:47:04;18.69;;;18.38;;
71172;SDS011;58875;51.996;4.504;2022-11-11T10:49:52;19.28;;;18.51;;
71172;SDS011;58875;51.996;4.504;2022-11-11T10:52:43;19.15;;;18.51;;
71172;SDS011;58875;51.996;4.504;2022-11-11T10:55:35;18.00;;;17.60;;
71172;SDS011;58875;51.996;4.504;2022-11-11T10:58:06;17.34;;;17.02;;
71172;SDS011;58875;51.996;4.504;2022-11-11T11:01:00;17.52;;;17.14;;
71172;SDS011;58875;51.996;4.504;2022-11-11T11:03:31;17.91;;;17.34;;
71172;SDS011;58875;51.996;4.504;2022-11-11T11:08:43;16.08;;;15.89;;
71172;SDS011;58875;51.996;4.504;2022-11-11T11:11:30;16.44;;;16.23;;
71172;SDS011;58875;51.996;4.504;2022-11-11T11:14:33;17.09;;;16.71;;
71172;SDS011;58875;51.996;4.504;2022-11-11T11:17:12;17.17;;;16.64;;
71172;SDS011;58875;51.996;4.504;2022-11-11T11:20:08;17.22;;;16.86;;
71172;SDS011;58875;51.996;4.504;2022-11-11T11:22:52;17.02;;;16.64;;
71172;SDS011;58875;51.996;4.504;2022-11-11T11:25:27;16.52;;;16.16;;
71172;SDS011;58875;51.996;4.504;2022-11-11T11:28:07;16.26;;;15.98;;
71172;SDS011;58875;51.996;4.504;2022-11-11T11:30:35;16.93;;;16.53;;
71172;SDS011;58875;51.996;4.504;2022-11-11T11:33:01;16.67;;;16.35;;
71172;SDS011;58875;51.996;4.504;2022-11-11T11:35:38;17.17;;;16.59;;
71172;SDS011;58875;51.996;4.504;2022-11-11T11:38:07;16.53;;;16.19;;
71172;SDS011;58875;51.996;4.504;2022-11-11T11:46:03;16.52;;;16.20;;
71172;SDS011;58875;51.996;4.504;2022-11-11T11:48:44;17.15;;;16.59;;
71172;SDS011;58875;51.996;4.504;2022-11-11T11:54:42;16.31;;;15.93;;
71172;SDS011;58875;51.996;4.504;2022-11-11T11:57:30;16.90;;;16.51;;
71172;SDS011;58875;51.996;4.504;2022-11-11T12:00:28;16.34;;;15.96;;
71172;SDS011;58875;51.996;4.504;2022-11-11T12:05:43;14.90;;;14.63;;
71172;SDS011;58875;51.996;4.504;2022-11-11T12:11:03;14.90;;;14.64;;
71172;SDS011;58875;51.996;4.504;2022-11-11T12:13:40;15.28;;;14.85;;
71172;SDS011;58875;51.996;4.504;2022-11-11T12:21:57;14.67;;;14.26;;
71172;SDS011;58875;51.996;4.504;2022-11-11T12:25:07;14.28;;;13.86;;
71172;SDS011;58875;51.996;4.504;2022-11-11T12:27:57;14.06;;;13.78;;
71172;SDS011;58875;51.996;4.504;2022-11-11T12:30:29;13.83;;;13.57;;
71172;SDS011;58875;51.996;4.504;2022-11-11T12:36:15;12.35;;;12.27;;
71172;SDS011;58875;51.996;4.504;2022-11-11T12:38:56;13.28;;;13.10;;
71172;SDS011;58875;51.996;4.504;2022-11-11T12:55:18;11.54;;;11.31;;
71172;SDS011;58875;51.996;4.504;2022-11-11T13:00:50;10.42;;;10.35;;
71172;SDS011;58875;51.996;4.504;2022-11-11T13:09:02;9.53;;;9.53;;
71172;SDS011;58875;51.996;4.504;2022-11-11T13:17:15;8.97;;;8.87;;
71172;SDS011;58875;51.996;4.504;2022-11-11T13:19:52;8.96;;;8.90;;
71172;SDS011;58875;51.996;4.504;2022-11-11T13:22:21;8.34;;;8.23;;
71172;SDS011;58875;51.996;4.504;2022-11-11T13:24:52;8.10;;;8.06;;
71172;SDS011;58875;51.996;4.504;2022-11-11T13:33:03;8.43;;;8.41;;
71172;SDS011;58875;51.996;4.504;2022-11-11T13:36:05;8.16;;;8.14;;
71172;SDS011;58875;51.996;4.504;2022-11-11T13:38:38;8.19;;;8.16;;
71172;SDS011;58875;51.996;4.504;2022-11-11T13:41:11;8.62;;;8.62;;
71172;SDS011;58875;51.996;4.504;2022-11-11T13:43:47;8.23;;;8.22;;
71172;SDS011;58875;51.996;4.504;2022-11-11T13:49:06;7.63;;;7.57;;
71172;SDS011;58875;51.996;4.504;2022-11-11T13:51:44;8.08;;;7.96;;
71172;SDS011;58875;51.996;4.504;2022-11-11T13:54:28;8.06;;;7.97;;
71172;SDS011;58875;51.996;4.504;2022-11-11T13:57:02;7.90;;;7.85;;
71172;SDS011;58875;51.996;4.504;2022-11-11T13:59:31;7.82;;;7.75;;
71172;SDS011;58875;51.996;4.504;2022-11-11T14:02:12;7.63;;;7.59;;
71172;SDS011;58875;51.996;4.504;2022-11-11T14:12:50;7.27;;;7.27;;
71172;SDS011;58875;51.996;4.504;2022-11-11T14:18:07;7.68;;;7.64;;
71172;SDS011;58875;51.996;4.504;2022-11-11T14:20:54;7.54;;;7.47;;
71172;SDS011;58875;51.996;4.504;2022-11-11T14:23:40;7.76;;;7.75;;
71172;SDS011;58875;51.996;4.504;2022-11-11T14:31:42;7.86;;;7.84;;
71172;SDS011;58875;51.996;4.504;2022-11-11T14:34:57;7.39;;;7.39;;
71172;SDS011;58875;51.996;4.504;2022-11-11T14:40:24;7.74;;;7.71;;
71172;SDS011;58875;51.996;4.504;2022-11-11T14:42:56;7.53;;;7.51;;
71172;SDS011;58875;51.996;4.504;2022-11-11T14:47:55;7.69;;;7.68;;
71172;SDS011;58875;51.996;4.504;2022-11-11T14:53:13;7.73;;;7.73;;
71172;SDS011;58875;51.996;4.504;2022-11-11T14:55:46;7.41;;;7.40;;
71172;SDS011;58875;51.996;4.504;2022-11-11T14:58:20;7.09;;;7.08;;
71172;SDS011;58875;51.996;4.504;2022-11-11T15:00:57;7.46;;;7.32;;
71172;SDS011;58875;51.996;4.504;2022-11-11T15:06:17;7.19;;;7.17;;
71172;SDS011;58875;51.996;4.504;2022-11-11T15:11:44;7.28;;;7.28;;
71172;SDS011;58875;51.996;4.504;2022-11-11T15:17:22;7.41;;;7.41;;
71172;SDS011;58875;51.996;4.504;2022-11-11T15:28:15;7.42;;;7.42;;
71172;SDS011;58875;51.996;4.504;2022-11-11T15:39:25;7.04;;;7.04;;
71172;SDS011;58875;51.996;4.504;2022-11-11T15:42:12;7.40;;;7.40;;
71172;SDS011;58875;51.996;4.504;2022-11-11T15:44:48;7.26;;;7.26;;
71172;SDS011;58875;51.996;4.504;2022-11-11T15:47:15;7.79;;;7.79;;
71172;SDS011;58875;51.996;4.504;2022-11-11T15:49:45;7.43;;;7.41;;
71172;SDS011;58875;51.996;4.504;2022-11-11T15:54:47;7.73;;;7.73;;
71172;SDS011;58875;51.996;4.504;2022-11-11T15:59:53;8.40;;;8.30;;
71172;SDS011;58875;51.996;4.504;2022-11-11T16:02:20;8.48;;;8.46;;
71172;SDS011;58875;51.996;4.504;2022-11-11T16:04:51;8.82;;;8.81;;
71172;SDS011;58875;51.996;4.504;2022-11-11T16:07:24;8.25;;;8.23;;
71172;SDS011;58875;51.996;4.504;2022-11-11T16:09:57;8.98;;;8.94;;
71172;SDS011;58875;51.996;4.504;2022-11-11T16:12:37;9.25;;;9.19;;
71172;SDS011;58875;51.996;4.504;2022-11-11T16:15:36;9.29;;;9.23;;
71172;SDS011;58875;51.996;4.504;2022-11-11T16:18:36;10.20;;;10.14;;
71172;SDS011;58875;51.996;4.504;2022-11-11T16:21:23;11.28;;;11.19;;
71172;SDS011;58875;51.996;4.504;2022-11-11T16:23:56;11.62;;;11.50;;
71172;SDS011;58875;51.996;4.504;2022-11-11T16:26:26;11.48;;;11.31;;
71172;SDS011;58875;51.996;4.504;2022-11-11T16:28:57;12.08;;;11.90;;
71172;SDS011;58875;51.996;4.504;2022-11-11T16:33:58;13.99;;;13.93;;
71172;SDS011;58875;51.996;4.504;2022-11-11T16:37:03;15.25;;;15.18;;
71172;SDS011;58875;51.996;4.504;2022-11-11T16:39:34;16.46;;;16.38;;
71172;SDS011;58875;51.996;4.504;2022-11-11T16:52:30;16.26;;;16.10;;
71172;SDS011;58875;51.996;4.504;2022-11-11T16:58:01;15.34;;;15.26;;
71172;SDS011;58875;51.996;4.504;2022-11-11T17:00:40;15.70;;;15.52;;
71172;SDS011;58875;51.996;4.504;2022-11-11T17:10:55;15.86;;;15.59;;
71172;SDS011;58875;51.996;4.504;2022-11-11T17:13:21;15.43;;;15.19;;
71172;SDS011;58875;51.996;4.504;2022-11-11T17:15:47;14.80;;;14.80;;
71172;SDS011;58875;51.996;4.504;2022-11-11T17:18:15;15.70;;;15.57;;
71172;SDS011;58875;51.996;4.504;2022-11-11T17:20:40;16.38;;;16.28;;
71172;SDS011;58875;51.996;4.504;2022-11-11T17:23:06;17.23;;;17.15;;
71172;SDS011;58875;51.996;4.504;2022-11-11T17:25:32;16.28;;;16.25;;
71172;SDS011;58875;51.996;4.504;2022-11-11T17:27:58;16.50;;;16.47;;
71172;SDS011;58875;51.996;4.504;2022-11-11T17:30:24;16.14;;;16.09;;
71172;SDS011;58875;51.996;4.504;2022-11-11T17:32:50;16.38;;;16.27;;
71172;SDS011;58875;51.996;4.504;2022-11-11T17:35:15;16.27;;;16.26;;
71172;SDS011;58875;51.996;4.504;2022-11-11T17:37:41;15.53;;;15.52;;
71172;SDS011;58875;51.996;4.504;2022-11-11T17:40:08;15.87;;;15.85;;
71172;SDS011;58875;51.996;4.504;2022-11-11T17:42:35;16.37;;;16.28;;